sensor_id;sensor_type;location;lat;lon;timestamp;pressure;altitude;pressure_sealevel;temperature;humidity
43934;BME280;59081;42.706;23.306;2023-07-02T00:02:19;94589.56;;;19.14;88.05
43934;BME280;59081;42.706;23.306;2023-07-02T00:04:50;94555.28;;;18.80;88.18
43934;BME280;59081;42.706;23.306;2023-07-02T00:07:27;94539.22;;;18.41;89.99
43934;BME280;59081;42.706;23.306;2023-07-02T00:13:08;94461.03;;;17.86;90.84
43934;BME280;59081;42.706;23.306;2023-07-02T00:15:39;94579.88;;;18.70;90.58
43934;BME280;59081;42.706;23.306;2023-07-02T00:18:45;94499.28;;;17.91;92.87
43934;BME280;59081;42.706;23.306;2023-07-02T00:24:33;94574.81;;;18.69;91.76
43934;BME280;59081;42.706;23.306;2023-07-02T00:27:17;94498.09;;;18.08;91.84
43934;BME280;59081;42.706;23.306;2023-07-02T00:29:56;94583.69;;;18.73;91.12
43934;BME280;59081;42.706;23.306;2023-07-02T00:32:27;94507.19;;;18.03;90.08
43934;BME280;59081;42.706;23.306;2023-07-02T00:35:13;94590.78;;;18.63;90.61
43934;BME280;59081;42.706;23.306;2023-07-02T00:37:40;94583.19;;;18.69;90.15
43934;BME280;59081;42.706;23.306;2023-07-02T00:40:34;94452.28;;;17.56;91.14
43934;BME280;59081;42.706;23.306;2023-07-02T00:43:07;94491.91;;;17.77;91.73
43934;BME280;59081;42.706;23.306;2023-07-02T00:45:42;94528.28;;;18.27;90.92
43934;BME280;59081;42.706;23.306;2023-07-02T00:48:27;94528.81;;;18.31;90.37
43934;BME280;59081;42.706;23.306;2023-07-02T00:51:22;94611.63;;;18.84;89.62
43934;BME280;59081;42.706;23.306;2023-07-02T00:54:15;94505.94;;;17.99;89.80
43934;BME280;59081;42.706;23.306;2023-07-02T00:56:51;94486.88;;;17.81;89.87
43934;BME280;59081;42.706;23.306;2023-07-02T00:59:22;94526.25;;;18.16;90.19
43934;BME280;59081;42.706;23.306;2023-07-02T01:01:51;94607.03;;;18.70;89.63
43934;BME280;59081;42.706;23.306;2023-07-02T01:04:25;94538.44;;;18.30;89.76
43934;BME280;59081;42.706;23.306;2023-07-02T01:07:18;94589.94;;;18.57;90.08
43934;BME280;59081;42.706;23.306;2023-07-02T01:12:53;94596.63;;;18.82;88.76
43934;BME280;59081;42.706;23.306;2023-07-02T01:16:00;94563.59;;;18.58;88.92
43934;BME280;59081;42.706;23.306;2023-07-02T01:19:07;94581.09;;;18.58;89.19
43934;BME280;59081;42.706;23.306;2023-07-02T01:22:07;94479.56;;;17.94;89.55
43934;BME280;59081;42.706;23.306;2023-07-02T01:24:37;94496.94;;;17.72;90.93
43934;BME280;59081;42.706;23.306;2023-07-02T01:27:24;94462.78;;;17.78;90.56
43934;BME280;59081;42.706;23.306;2023-07-02T01:29:54;94546.09;;;18.52;89.71
43934;BME280;59081;42.706;23.306;2023-07-02T01:32:42;94559.56;;;18.59;90.25
43934;BME280;59081;42.706;23.306;2023-07-02T01:35:16;94472.69;;;17.90;90.69
43934;BME280;59081;42.706;23.306;2023-07-02T01:38:18;94454.19;;;17.81;91.13
43934;BME280;59081;42.706;23.306;2023-07-02T01:40:44;94561.00;;;18.37;92.29
43934;BME280;59081;42.706;23.306;2023-07-02T01:43:26;94458.38;;;17.60;92.53
43934;BME280;59081;42.706;23.306;2023-07-02T01:46:23;94554.13;;;18.16;93.10
43934;BME280;59081;42.706;23.306;2023-07-02T01:49:39;94559.69;;;18.16;93.43
43934;BME280;59081;42.706;23.306;2023-07-02T01:52:27;94552.91;;;17.74;93.62
43934;BME280;59081;42.706;23.306;2023-07-02T01:55:13;94547.28;;;17.63;93.30
43934;BME280;59081;42.706;23.306;2023-07-02T01:58:17;94531.81;;;17.62;93.53
43934;BME280;59081;42.706;23.306;2023-07-02T02:04:32;94468.75;;;17.05;95.30
43934;BME280;59081;42.706;23.306;2023-07-02T02:07:48;94528.31;;;17.67;95.11
43934;BME280;59081;42.706;23.306;2023-07-02T02:20:36;94508.28;;;17.63;93.66
43934;BME280;59081;42.706;23.306;2023-07-02T02:23:13;94549.25;;;18.05;93.03
43934;BME280;59081;42.706;23.306;2023-07-02T02:26:03;94448.41;;;17.36;93.59
43934;BME280;59081;42.706;23.306;2023-07-02T02:34:46;94497.47;;;17.28;96.30
43934;BME280;59081;42.706;23.306;2023-07-02T02:40:49;94511.00;;;17.10;97.96
43934;BME280;59081;42.706;23.306;2023-07-02T02:43:55;94520.41;;;17.18;98.16
43934;BME280;59081;42.706;23.306;2023-07-02T02:47:09;94470.31;;;16.81;98.88
43934;BME280;59081;42.706;23.306;2023-07-02T02:49:47;94538.41;;;17.22;98.35
43934;BME280;59081;42.706;23.306;2023-07-02T02:52:57;94440.00;;;16.51;97.95
43934;BME280;59081;42.706;23.306;2023-07-02T02:58:27;94529.31;;;17.22;97.96
43934;BME280;59081;42.706;23.306;2023-07-02T03:01:13;94521.53;;;17.31;96.52
43934;BME280;59081;42.706;23.306;2023-07-02T03:09:48;94434.03;;;16.95;93.39
43934;BME280;59081;42.706;23.306;2023-07-02T03:15:12;94543.63;;;17.46;94.07
43934;BME280;59081;42.706;23.306;2023-07-02T03:17:51;94464.75;;;17.18;94.02
43934;BME280;59081;42.706;23.306;2023-07-02T03:20:35;94538.50;;;17.76;93.55
43934;BME280;59081;42.706;23.306;2023-07-02T03:23:33;94441.69;;;17.06;93.57
43934;BME280;59081;42.706;23.306;2023-07-02T03:26:04;94517.22;;;17.73;92.63
43934;BME280;59081;42.706;23.306;2023-07-02T03:28:46;94524.41;;;17.96;91.52
43934;BME280;59081;42.706;23.306;2023-07-02T03:34:28;94455.81;;;17.51;90.26
43934;BME280;59081;42.706;23.306;2023-07-02T03:37:05;94562.03;;;18.40;89.72
43934;BME280;59081;42.706;23.306;2023-07-02T03:39:38;94545.03;;;18.38;88.73
43934;BME280;59081;42.706;23.306;2023-07-02T03:45:24;94491.00;;;18.13;87.20
43934;BME280;59081;42.706;23.306;2023-07-02T03:47:56;94566.19;;;18.72;87.11
43934;BME280;59081;42.706;23.306;2023-07-02T03:50:55;94551.22;;;18.81;86.53
43934;BME280;59081;42.706;23.306;2023-07-02T03:53:24;94502.50;;;18.60;85.86
43934;BME280;59081;42.706;23.306;2023-07-02T03:56:01;94552.75;;;18.93;84.28
43934;BME280;59081;42.706;23.306;2023-07-02T04:04:47;94572.78;;;18.75;85.73
43934;BME280;59081;42.706;23.306;2023-07-02T04:10:45;94440.81;;;17.96;87.67
43934;BME280;59081;42.706;23.306;2023-07-02T04:13:37;94555.22;;;18.58;87.10
43934;BME280;59081;42.706;23.306;2023-07-02T04:16:26;94484.91;;;18.09;87.62
43934;BME280;59081;42.706;23.306;2023-07-02T04:19:32;94544.28;;;18.37;88.47
43934;BME280;59081;42.706;23.306;2023-07-02T04:25:17;94535.88;;;18.15;89.28
43934;BME280;59081;42.706;23.306;2023-07-02T04:28:10;94587.66;;;18.50;89.54
43934;BME280;59081;42.706;23.306;2023-07-02T04:31:04;94606.44;;;18.55;89.21
43934;BME280;59081;42.706;23.306;2023-07-02T04:33:39;94554.13;;;18.22;88.83
43934;BME280;59081;42.706;23.306;2023-07-02T04:36:08;94552.91;;;18.39;88.62
43934;BME280;59081;42.706;23.306;2023-07-02T04:38:37;94610.03;;;18.72;89.11
43934;BME280;59081;42.706;23.306;2023-07-02T04:41:11;94578.53;;;18.49;89.57
43934;BME280;59081;42.706;23.306;2023-07-02T04:43:49;94524.72;;;18.15;89.23
43934;BME280;59081;42.706;23.306;2023-07-02T04:46:44;94567.66;;;18.51;89.74
43934;BME280;59081;42.706;23.306;2023-07-02T04:49:28;94627.88;;;19.02;89.20
43934;BME280;59081;42.706;23.306;2023-07-02T04:52:05;94623.31;;;19.10;89.42
43934;BME280;59081;42.706;23.306;2023-07-02T04:55:00;94601.50;;;19.03;88.89
43934;BME280;59081;42.706;23.306;2023-07-02T04:57:39;94593.34;;;19.05;87.83
43934;BME280;59081;42.706;23.306;2023-07-02T05:00:45;94544.13;;;18.69;88.45
43934;BME280;59081;42.706;23.306;2023-07-02T05:03:34;94622.31;;;19.30;88.97
43934;BME280;59081;42.706;23.306;2023-07-02T05:06:09;94568.72;;;18.93;88.89
43934;BME280;59081;42.706;23.306;2023-07-02T05:08:50;94600.47;;;19.29;88.69
43934;BME280;59081;42.706;23.306;2023-07-02T05:11:22;94611.41;;;19.38;88.11
43934;BME280;59081;42.706;23.306;2023-07-02T05:13:58;94524.03;;;18.48;88.50
43934;BME280;59081;42.706;23.306;2023-07-02T05:16:55;94623.31;;;19.22;87.42
43934;BME280;59081;42.706;23.306;2023-07-02T05:19:33;94599.44;;;18.82;88.29
43934;BME280;59081;42.706;23.306;2023-07-02T05:22:02;94578.03;;;18.56;89.91
43934;BME280;59081;42.706;23.306;2023-07-02T05:24:33;94585.97;;;18.69;89.20
43934;BME280;59081;42.706;23.306;2023-07-02T05:27:05;94527.81;;;18.39;88.23
43934;BME280;59081;42.706;23.306;2023-07-02T05:29:43;94632.97;;;19.15;87.29
43934;BME280;59081;42.706;23.306;2023-07-02T05:32:13;94582.19;;;18.94;86.82
43934;BME280;59081;42.706;23.306;2023-07-02T05:34:45;94632.44;;;19.17;87.36
43934;BME280;59081;42.706;23.306;2023-07-02T05:37:16;94511.59;;;18.43;86.70
43934;BME280;59081;42.706;23.306;2023-07-02T05:39:51;94643.88;;;19.46;86.06
43934;BME280;59081;42.706;23.306;2023-07-02T05:42:28;94648.50;;;19.55;85.47
43934;BME280;59081;42.706;23.306;2023-07-02T05:45:14;94647.44;;;19.58;84.66
43934;BME280;59081;42.706;23.306;2023-07-02T05:47:50;94621.31;;;19.50;83.99
43934;BME280;59081;42.706;23.306;2023-07-02T05:50:46;94657.09;;;19.68;83.35
43934;BME280;59081;42.706;23.306;2023-07-02T05:53:28;94573.06;;;19.10;83.79
43934;BME280;59081;42.706;23.306;2023-07-02T05:56:25;94603.75;;;19.44;83.49
43934;BME280;59081;42.706;23.306;2023-07-02T05:59:02;94658.88;;;19.66;84.36
43934;BME280;59081;42.706;23.306;2023-07-02T06:01:36;94654.53;;;19.48;85.89
43934;BME280;59081;42.706;23.306;2023-07-02T06:04:28;94534.50;;;18.87;84.53
43934;BME280;59081;42.706;23.306;2023-07-02T06:06:57;94611.84;;;18.69;87.63
43934;BME280;59081;42.706;23.306;2023-07-02T06:12:57;94624.59;;;19.48;85.14
43934;BME280;59081;42.706;23.306;2023-07-02T06:15:33;94561.66;;;19.03;84.80
43934;BME280;59081;42.706;23.306;2023-07-02T06:18:38;94634.00;;;19.62;85.49
43934;BME280;59081;42.706;23.306;2023-07-02T06:21:12;94569.00;;;19.00;85.05
43934;BME280;59081;42.706;23.306;2023-07-02T06:23:51;94593.88;;;19.21;86.25
43934;BME280;59081;42.706;23.306;2023-07-02T06:26:30;94545.41;;;18.79;85.69
43934;BME280;59081;42.706;23.306;2023-07-02T06:29:04;94532.97;;;18.80;84.69
43934;BME280;59081;42.706;23.306;2023-07-02T06:31:46;94630.94;;;19.60;83.77
43934;BME280;59081;42.706;23.306;2023-07-02T06:34:18;94502.28;;;18.97;84.02
43934;BME280;59081;42.706;23.306;2023-07-02T06:36:59;94590.59;;;19.50;84.29
43934;BME280;59081;42.706;23.306;2023-07-02T06:45:46;94618.56;;;20.30;80.63
43934;BME280;59081;42.706;23.306;2023-07-02T06:48:40;94493.06;;;19.46;79.59
43934;BME280;59081;42.706;23.306;2023-07-02T06:51:23;94610.91;;;20.47;79.74
43934;BME280;59081;42.706;23.306;2023-07-02T06:53:59;94559.88;;;20.25;78.64
43934;BME280;59081;42.706;23.306;2023-07-02T06:56:37;94550.56;;;20.05;79.61
43934;BME280;59081;42.706;23.306;2023-07-02T06:59:08;94625.53;;;20.76;78.52
43934;BME280;59081;42.706;23.306;2023-07-02T07:01:40;94507.03;;;20.15;77.60
43934;BME280;59081;42.706;23.306;2023-07-02T07:04:20;94624.97;;;20.83;78.47
43934;BME280;59081;42.706;23.306;2023-07-02T07:06:54;94496.41;;;20.08;76.88
43934;BME280;59081;42.706;23.306;2023-07-02T07:09:36;94553.00;;;20.37;77.58
43934;BME280;59081;42.706;23.306;2023-07-02T07:12:05;94584.69;;;20.50;79.42
43934;BME280;59081;42.706;23.306;2023-07-02T07:14:40;94551.97;;;20.40;78.21
43934;BME280;59081;42.706;23.306;2023-07-02T07:17:07;94505.78;;;20.11;78.22
43934;BME280;59081;42.706;23.306;2023-07-02T07:19:57;94515.91;;;20.25;77.50
43934;BME280;59081;42.706;23.306;2023-07-02T07:22:53;94581.81;;;20.62;77.50
43934;BME280;59081;42.706;23.306;2023-07-02T07:25:50;94584.53;;;20.78;76.22
43934;BME280;59081;42.706;23.306;2023-07-02T07:28:24;94619.84;;;20.93;75.76
43934;BME280;59081;42.706;23.306;2023-07-02T07:31:01;94535.75;;;20.16;78.54
43934;BME280;59081;42.706;23.306;2023-07-02T07:33:54;94553.59;;;20.07;79.11
43934;BME280;59081;42.706;23.306;2023-07-02T07:39:08;94615.09;;;20.76;78.37
43934;BME280;59081;42.706;23.306;2023-07-02T07:42:00;94611.28;;;20.74;77.65
43934;BME280;59081;42.706;23.306;2023-07-02T07:44:50;94606.13;;;20.83;77.11
43934;BME280;59081;42.706;23.306;2023-07-02T07:47:42;94606.09;;;20.95;76.79
43934;BME280;59081;42.706;23.306;2023-07-02T07:50:10;94564.00;;;20.65;75.85
43934;BME280;59081;42.706;23.306;2023-07-02T07:52:42;94608.47;;;21.21;75.54
43934;BME280;59081;42.706;23.306;2023-07-02T07:55:14;94537.03;;;20.67;75.28
43934;BME280;59081;42.706;23.306;2023-07-02T07:57:51;94610.88;;;21.00;76.99
43934;BME280;59081;42.706;23.306;2023-07-02T08:00:20;94621.88;;;20.92;76.67
43934;BME280;59081;42.706;23.306;2023-07-02T08:02:57;94542.56;;;20.26;77.64
43934;BME280;59081;42.706;23.306;2023-07-02T08:05:33;94538.22;;;20.42;76.33
43934;BME280;59081;42.706;23.306;2023-07-02T08:08:07;94542.34;;;20.71;75.87
43934;BME280;59081;42.706;23.306;2023-07-02T08:10:45;94506.59;;;20.53;75.68
43934;BME280;59081;42.706;23.306;2023-07-02T08:13:21;94618.81;;;21.31;75.70
43934;BME280;59081;42.706;23.306;2023-07-02T08:16:05;94518.56;;;20.53;75.78
43934;BME280;59081;42.706;23.306;2023-07-02T08:18:53;94631.00;;;21.34;74.49
43934;BME280;59081;42.706;23.306;2023-07-02T08:21:22;94535.75;;;20.68;75.43
43934;BME280;59081;42.706;23.306;2023-07-02T08:26:47;94528.38;;;20.71;73.87
43934;BME280;59081;42.706;23.306;2023-07-02T08:29:34;94497.88;;;20.62;74.04
43934;BME280;59081;42.706;23.306;2023-07-02T08:32:14;94613.44;;;21.33;75.18
43934;BME280;59081;42.706;23.306;2023-07-02T08:34:54;94510.09;;;20.64;75.84
43934;BME280;59081;42.706;23.306;2023-07-02T08:37:41;94620.16;;;21.25;75.26
43934;BME280;59081;42.706;23.306;2023-07-02T08:40:35;94549.09;;;20.92;74.90
43934;BME280;59081;42.706;23.306;2023-07-02T08:43:09;94576.13;;;21.19;74.20
43934;BME280;59081;42.706;23.306;2023-07-02T08:45:47;94510.94;;;20.89;72.71
43934;BME280;59081;42.706;23.306;2023-07-02T08:48:25;94597.41;;;21.88;71.67
43934;BME280;59081;42.706;23.306;2023-07-02T08:51:04;94527.72;;;21.98;69.57
43934;BME280;59081;42.706;23.306;2023-07-02T08:53:38;94559.38;;;22.17;69.89
43934;BME280;59081;42.706;23.306;2023-07-02T08:56:09;94552.72;;;21.96;69.22
43934;BME280;59081;42.706;23.306;2023-07-02T09:01:44;94549.63;;;22.42;68.43
43934;BME280;59081;42.706;23.306;2023-07-02T09:07:14;94513.00;;;23.04;64.66
43934;BME280;59081;42.706;23.306;2023-07-02T09:09:50;94522.50;;;23.33;63.96
43934;BME280;59081;42.706;23.306;2023-07-02T09:15:04;94524.75;;;23.67;62.56
43934;BME280;59081;42.706;23.306;2023-07-02T09:17:41;94534.59;;;23.86;62.01
43934;BME280;59081;42.706;23.306;2023-07-02T09:20:07;94555.59;;;23.85;61.74
43934;BME280;59081;42.706;23.306;2023-07-02T09:22:42;94603.53;;;24.06;62.05
43934;BME280;59081;42.706;23.306;2023-07-02T09:25:13;94543.25;;;24.02;61.85
43934;BME280;59081;42.706;23.306;2023-07-02T09:27:41;94547.25;;;24.46;60.68
43934;BME280;59081;42.706;23.306;2023-07-02T09:30:12;94542.88;;;25.05;60.07
43934;BME280;59081;42.706;23.306;2023-07-02T09:32:39;94516.06;;;24.91;58.40
43934;BME280;59081;42.706;23.306;2023-07-02T09:35:08;94590.66;;;25.31;59.32
43934;BME280;59081;42.706;23.306;2023-07-02T09:37:42;94544.81;;;25.10;57.51
43934;BME280;59081;42.706;23.306;2023-07-02T09:40:11;94517.56;;;24.92;58.12
43934;BME280;59081;42.706;23.306;2023-07-02T09:42:39;94586.34;;;25.30;57.77
43934;BME280;59081;42.706;23.306;2023-07-02T09:45:08;94553.13;;;24.82;57.63
43934;BME280;59081;42.706;23.306;2023-07-02T09:47:42;94577.16;;;24.96;58.26
43934;BME280;59081;42.706;23.306;2023-07-02T09:50:14;94531.84;;;24.60;57.38
43934;BME280;59081;42.706;23.306;2023-07-02T09:52:45;94489.16;;;24.69;56.78
43934;BME280;59081;42.706;23.306;2023-07-02T09:55:12;94588.03;;;25.67;56.88
43934;BME280;59081;42.706;23.306;2023-07-02T09:57:48;94533.88;;;25.48;56.31
43934;BME280;59081;42.706;23.306;2023-07-02T10:00:14;94524.31;;;25.72;56.44
43934;BME280;59081;42.706;23.306;2023-07-02T10:02:46;94516.66;;;25.80;56.96
43934;BME280;59081;42.706;23.306;2023-07-02T10:05:27;94558.50;;;25.69;53.84
43934;BME280;59081;42.706;23.306;2023-07-02T10:07:57;94504.91;;;25.48;55.50
43934;BME280;59081;42.706;23.306;2023-07-02T10:10:28;94580.06;;;26.36;54.78
43934;BME280;59081;42.706;23.306;2023-07-02T10:12:54;94506.56;;;26.21;53.21
43934;BME280;59081;42.706;23.306;2023-07-02T10:15:27;94478.09;;;26.47;52.51
43934;BME280;59081;42.706;23.306;2023-07-02T10:18:02;94577.44;;;27.25;50.25
43934;BME280;59081;42.706;23.306;2023-07-02T10:20:40;94449.75;;;26.24;49.52
43934;BME280;59081;42.706;23.306;2023-07-02T10:23:10;94535.31;;;26.91;50.33
43934;BME280;59081;42.706;23.306;2023-07-02T10:25:37;94549.94;;;27.33;50.04
43934;BME280;59081;42.706;23.306;2023-07-02T10:28:23;94479.81;;;27.17;50.25
43934;BME280;59081;42.706;23.306;2023-07-02T10:30:52;94436.41;;;26.84;47.79
43934;BME280;59081;42.706;23.306;2023-07-02T10:33:19;94515.66;;;27.60;47.33
43934;BME280;59081;42.706;23.306;2023-07-02T10:35:49;94463.75;;;27.04;46.33
43934;BME280;59081;42.706;23.306;2023-07-02T10:38:23;94566.97;;;27.64;45.94
43934;BME280;59081;42.706;23.306;2023-07-02T10:40:59;94513.75;;;27.32;43.87
43934;BME280;59081;42.706;23.306;2023-07-02T10:43:33;94525.03;;;27.55;43.01
43934;BME280;59081;42.706;23.306;2023-07-02T10:46:01;94480.00;;;27.34;43.18
43934;BME280;59081;42.706;23.306;2023-07-02T10:48:27;94488.47;;;27.26;43.71
43934;BME280;59081;42.706;23.306;2023-07-02T10:50:53;94466.91;;;26.93;43.76
43934;BME280;59081;42.706;23.306;2023-07-02T10:53:19;94488.69;;;27.51;42.00
43934;BME280;59081;42.706;23.306;2023-07-02T10:55:45;94467.16;;;27.86;41.00
43934;BME280;59081;42.706;23.306;2023-07-02T10:58:12;94460.59;;;27.68;40.37
43934;BME280;59081;42.706;23.306;2023-07-02T11:00:49;94473.00;;;27.81;41.65
43934;BME280;59081;42.706;23.306;2023-07-02T11:03:24;94506.16;;;28.26;41.30
43934;BME280;59081;42.706;23.306;2023-07-02T11:05:54;94455.09;;;27.25;42.60
43934;BME280;59081;42.706;23.306;2023-07-02T11:08:20;94476.41;;;27.11;44.05
43934;BME280;59081;42.706;23.306;2023-07-02T11:10:50;94534.69;;;27.90;43.45
43934;BME280;59081;42.706;23.306;2023-07-02T11:13:18;94528.44;;;27.91;42.56
43934;BME280;59081;42.706;23.306;2023-07-02T11:15:45;94511.88;;;27.80;42.66
43934;BME280;59081;42.706;23.306;2023-07-02T11:18:15;94462.03;;;27.92;42.33
43934;BME280;59081;42.706;23.306;2023-07-02T11:20:45;94494.28;;;28.04;42.25
43934;BME280;59081;42.706;23.306;2023-07-02T11:23:22;94498.06;;;27.99;42.69
43934;BME280;59081;42.706;23.306;2023-07-02T11:26:01;94519.03;;;28.04;43.61
43934;BME280;59081;42.706;23.306;2023-07-02T11:28:31;94490.13;;;26.40;50.03
43934;BME280;59081;42.706;23.306;2023-07-02T11:31:02;94507.63;;;25.82;53.97
43934;BME280;59081;42.706;23.306;2023-07-02T11:33:39;94483.44;;;25.16;56.27
43934;BME280;59081;42.706;23.306;2023-07-02T11:36:19;94462.19;;;24.60;57.46
43934;BME280;59081;42.706;23.306;2023-07-02T11:38:45;94468.63;;;24.48;58.51
43934;BME280;59081;42.706;23.306;2023-07-02T11:41:16;94520.38;;;24.92;58.56
43934;BME280;59081;42.706;23.306;2023-07-02T11:43:42;94459.84;;;24.51;59.17
43934;BME280;59081;42.706;23.306;2023-07-02T11:46:11;94448.22;;;24.68;57.56
43934;BME280;59081;42.706;23.306;2023-07-02T11:48:42;94538.97;;;25.50;56.87
43934;BME280;59081;42.706;23.306;2023-07-02T11:51:18;94452.94;;;25.07;54.21
43934;BME280;59081;42.706;23.306;2023-07-02T11:53:44;94469.53;;;25.39;52.16
43934;BME280;59081;42.706;23.306;2023-07-02T11:56:16;94500.78;;;25.98;47.33
43934;BME280;59081;42.706;23.306;2023-07-02T11:59:09;94439.84;;;24.76;47.35
43934;BME280;59081;42.706;23.306;2023-07-02T12:01:50;94453.31;;;24.90;47.84
43934;BME280;59081;42.706;23.306;2023-07-02T12:04:24;94508.19;;;25.10;49.47
43934;BME280;59081;42.706;23.306;2023-07-02T12:06:55;94481.84;;;24.53;51.35
43934;BME280;59081;42.706;23.306;2023-07-02T12:09:32;94546.47;;;24.45;54.13
43934;BME280;59081;42.706;23.306;2023-07-02T12:12:02;94555.16;;;24.21;55.53
43934;BME280;59081;42.706;23.306;2023-07-02T12:14:35;94561.53;;;23.95;58.20
43934;BME280;59081;42.706;23.306;2023-07-02T12:17:14;94499.00;;;23.63;58.74
43934;BME280;59081;42.706;23.306;2023-07-02T12:19:48;94497.06;;;23.84;59.33
43934;BME280;59081;42.706;23.306;2023-07-02T12:22:16;94461.09;;;23.24;60.98
43934;BME280;59081;42.706;23.306;2023-07-02T12:24:48;94475.94;;;23.38;64.47
43934;BME280;59081;42.706;23.306;2023-07-02T12:27:15;94547.81;;;24.05;64.86
43934;BME280;59081;42.706;23.306;2023-07-02T12:29:41;94509.16;;;23.20;66.34
43934;BME280;59081;42.706;23.306;2023-07-02T12:32:07;94514.91;;;23.73;68.51
43934;BME280;59081;42.706;23.306;2023-07-02T12:34:33;94510.69;;;24.06;67.27
43934;BME280;59081;42.706;23.306;2023-07-02T12:37:01;94570.31;;;24.57;66.46
43934;BME280;59081;42.706;23.306;2023-07-02T12:39:30;94505.59;;;24.31;64.70
43934;BME280;59081;42.706;23.306;2023-07-02T12:41:55;94548.28;;;24.69;65.15
43934;BME280;59081;42.706;23.306;2023-07-02T12:44:21;94496.72;;;24.74;64.09
43934;BME280;59081;42.706;23.306;2023-07-02T12:46:49;94497.06;;;25.25;60.85
43934;BME280;59081;42.706;23.306;2023-07-02T12:49:15;94484.25;;;25.24;59.36
43934;BME280;59081;42.706;23.306;2023-07-02T12:51:43;94553.25;;;25.93;58.73
43934;BME280;59081;42.706;23.306;2023-07-02T12:54:09;94477.28;;;25.46;58.50
43934;BME280;59081;42.706;23.306;2023-07-02T12:56:40;94457.81;;;25.27;57.55
43934;BME280;59081;42.706;23.306;2023-07-02T12:59:06;94447.50;;;25.87;55.23
43934;BME280;59081;42.706;23.306;2023-07-02T13:01:32;94527.31;;;27.18;52.94
43934;BME280;59081;42.706;23.306;2023-07-02T13:03:57;94523.69;;;27.10;52.28
43934;BME280;59081;42.706;23.306;2023-07-02T13:06:23;94456.81;;;27.28;49.10
43934;BME280;59081;42.706;23.306;2023-07-02T13:08:51;94492.22;;;27.97;48.89
43934;BME280;59081;42.706;23.306;2023-07-02T13:11:20;94551.34;;;28.71;47.65
43934;BME280;59081;42.706;23.306;2023-07-02T13:13:49;94498.00;;;29.18;44.61
43934;BME280;59081;42.706;23.306;2023-07-02T13:16:14;94503.09;;;28.87;44.80
43934;BME280;59081;42.706;23.306;2023-07-02T13:18:40;94519.59;;;28.73;46.00
43934;BME280;59081;42.706;23.306;2023-07-02T13:21:11;94434.19;;;27.58;47.91
43934;BME280;59081;42.706;23.306;2023-07-02T13:23:39;94449.28;;;27.68;48.51
43934;BME280;59081;42.706;23.306;2023-07-02T13:26:07;94484.91;;;27.49;49.77
43934;BME280;59081;42.706;23.306;2023-07-02T13:28:32;94441.91;;;26.97;49.27
43934;BME280;59081;42.706;23.306;2023-07-02T13:30:58;94528.00;;;27.03;51.02
43934;BME280;59081;42.706;23.306;2023-07-02T13:33:31;94518.50;;;26.78;51.42
43934;BME280;59081;42.706;23.306;2023-07-02T13:35:57;94487.66;;;26.37;52.02
43934;BME280;59081;42.706;23.306;2023-07-02T13:38:23;94412.84;;;25.79;52.60
43934;BME280;59081;42.706;23.306;2023-07-02T13:40:49;94417.09;;;25.64;53.18
43934;BME280;59081;42.706;23.306;2023-07-02T13:43:20;94428.66;;;25.53;53.35
43934;BME280;59081;42.706;23.306;2023-07-02T13:45:52;94470.94;;;25.53;54.33
43934;BME280;59081;42.706;23.306;2023-07-02T13:48:17;94490.13;;;25.55;55.48
43934;BME280;59081;42.706;23.306;2023-07-02T13:50:46;94511.09;;;25.46;55.32
43934;BME280;59081;42.706;23.306;2023-07-02T13:53:12;94470.44;;;24.92;55.60
43934;BME280;59081;42.706;23.306;2023-07-02T13:55:38;94532.19;;;24.90;55.18
43934;BME280;59081;42.706;23.306;2023-07-02T13:58:04;94529.91;;;24.55;59.39
43934;BME280;59081;42.706;23.306;2023-07-02T14:00:35;94466.19;;;24.18;60.99
43934;BME280;59081;42.706;23.306;2023-07-02T14:03:01;94416.69;;;23.36;63.00
43934;BME280;59081;42.706;23.306;2023-07-02T14:05:38;94528.09;;;23.91;62.29
43934;BME280;59081;42.706;23.306;2023-07-02T14:08:09;94445.19;;;23.00;64.90
43934;BME280;59081;42.706;23.306;2023-07-02T14:13:56;94463.94;;;22.92;67.30
43934;BME280;59081;42.706;23.306;2023-07-02T14:16:24;94496.38;;;23.06;66.91
43934;BME280;59081;42.706;23.306;2023-07-02T14:18:55;94440.69;;;22.60;68.12
43934;BME280;59081;42.706;23.306;2023-07-02T14:21:24;94445.25;;;22.63;67.75
43934;BME280;59081;42.706;23.306;2023-07-02T14:23:55;94527.75;;;23.23;67.86
43934;BME280;59081;42.706;23.306;2023-07-02T14:26:27;94534.94;;;23.38;68.48
43934;BME280;59081;42.706;23.306;2023-07-02T14:28:57;94421.38;;;22.88;67.16
43934;BME280;59081;42.706;23.306;2023-07-02T14:31:26;94457.94;;;23.14;66.00
43934;BME280;59081;42.706;23.306;2023-07-02T14:33:55;94487.81;;;23.31;63.34
43934;BME280;59081;42.706;23.306;2023-07-02T14:36:21;94529.53;;;23.72;64.90
43934;BME280;59081;42.706;23.306;2023-07-02T14:38:52;94453.88;;;23.29;65.41
43934;BME280;59081;42.706;23.306;2023-07-02T14:41:20;94545.19;;;23.93;63.82
43934;BME280;59081;42.706;23.306;2023-07-02T14:43:49;94492.41;;;23.73;63.82
43934;BME280;59081;42.706;23.306;2023-07-02T14:46:15;94495.56;;;23.70;64.03
43934;BME280;59081;42.706;23.306;2023-07-02T14:48:43;94449.31;;;23.39;64.68
43934;BME280;59081;42.706;23.306;2023-07-02T14:51:19;94506.59;;;23.68;66.46
43934;BME280;59081;42.706;23.306;2023-07-02T14:53:45;94545.72;;;23.79;68.39
43934;BME280;59081;42.706;23.306;2023-07-02T14:56:11;94555.25;;;23.76;69.77
43934;BME280;59081;42.706;23.306;2023-07-02T14:58:49;94557.53;;;23.77;70.87
43934;BME280;59081;42.706;23.306;2023-07-02T15:01:15;94482.63;;;23.35;70.95
43934;BME280;59081;42.706;23.306;2023-07-02T15:03:46;94502.34;;;23.61;69.95
43934;BME280;59081;42.706;23.306;2023-07-02T15:06:14;94514.47;;;23.95;68.81
43934;BME280;59081;42.706;23.306;2023-07-02T15:08:41;94560.78;;;24.94;65.15